Time;durP1;ratioP1;P1;durP2;ratioP2;P2;SDS_P1;SDS_P2;PMS_P1;PMS_P2;Temp;Humidity;BMP_temperature;BMP_pressure;BME280_temperature;BME280_humidity;BME280_pressure;Samples;Min_cycle;Max_cycle;Signal;HPM_P1;HPM_P2
2022/05/16 00:00:00;;;;;;;5.57;2.70;;;;;;;23.09;57.99;100160.59;5093533;28;20227;-62
2022/05/16 00:02:25;;;;;;;4.83;3.00;;;;;;;23.09;57.95;100154.81;5093661;28;20879;-62
2022/05/16 00:04:51;;;;;;;5.50;3.47;;;;;;;23.09;58.23;100146.97;5093823;28;20170;-62
2022/05/16 00:07:18;;;;;;;5.70;2.70;;;;;;;23.09;58.08;100149.06;5093374;28;20190;-62
2022/05/16 00:09:43;;;;;;;5.93;3.10;;;;;;;23.08;57.68;100156.06;5094466;28;20708;-62
2022/05/16 00:12:09;;;;;;;5.10;3.10;;;;;;;23.07;57.57;100149.47;5093289;28;20768;-62
2022/05/16 00:14:35;;;;;;;7.67;3.30;;;;;;;23.07;57.73;100140.84;5075795;28;20190;-62
2022/05/16 00:17:01;;;;;;;5.30;2.73;;;;;;;23.05;57.80;100139.59;5107961;27;20426;-62
2022/05/16 00:19:26;;;;;;;4.43;2.80;;;;;;;23.07;57.88;100154.41;5134274;27;20426;-62
2022/05/16 00:21:52;;;;;;;5.90;2.50;;;;;;;23.05;57.96;100166.34;5104695;27;20193;-62
2022/05/16 00:24:18;;;;;;;3.50;2.40;;;;;;;23.06;57.77;100173.75;5098352;28;20166;-62
2022/05/16 00:26:44;;;;;;;5.53;2.70;;;;;;;23.05;57.87;100171.28;5112653;28;20177;-61
2022/05/16 00:29:09;;;;;;;5.13;2.73;;;;;;;23.05;57.70;100179.91;5113323;28;20424;-61
2022/05/16 00:31:35;;;;;;;5.60;3.00;;;;;;;23.04;57.96;100182.00;5113107;28;20162;-61
2022/05/16 00:34:01;;;;;;;4.87;2.60;;;;;;;23.02;57.80;100172.94;5110276;28;20205;-61
2022/05/16 00:36:26;;;;;;;5.67;2.67;;;;;;;23.03;57.68;100182.41;5110576;28;20684;-62
2022/05/16 00:38:54;;;;;;;6.00;3.07;;;;;;;23.02;57.80;100178.69;5109918;28;20184;-62
2022/05/16 00:41:19;;;;;;;6.13;2.90;;;;;;;23.01;57.74;100179.94;5111261;28;20179;-61
2022/05/16 00:43:48;;;;;;;4.87;3.00;;;;;;;23.01;57.86;100170.47;5110954;28;20411;-61
2022/05/16 00:46:14;;;;;;;5.63;2.70;;;;;;;23.00;57.93;100178.31;5103849;28;20222;-61
2022/05/16 00:48:40;;;;;;;7.10;2.83;;;;;;;23.01;57.92;100176.22;5092785;28;20879;-61
2022/05/16 00:51:06;;;;;;;4.73;2.93;;;;;;;22.99;57.93;100162.25;5105072;28;20428;-61
2022/05/16 00:53:31;;;;;;;3.70;2.77;;;;;;;23.00;57.66;100157.31;5092775;28;20221;-61
2022/05/16 00:55:56;;;;;;;6.37;3.13;;;;;;;22.99;58.25;100150.75;5091216;28;20178;-61
2022/05/16 00:58:22;;;;;;;4.70;2.80;;;;;;;22.99;57.77;100158.56;5092561;28;20220;-61
2022/05/16 01:00:48;;;;;;;7.00;2.83;;;;;;;22.99;58.08;100153.63;5074339;28;20617;-61
2022/05/16 01:06:05;;;;;;;5.43;2.93;;;;;;;22.98;57.93;100134.69;5092657;28;20419;-61
2022/05/16 01:08:32;;;;;;;4.40;2.03;;;;;;;22.98;57.85;100131.00;5092390;28;20420;-61
2022/05/16 01:11:00;;;;;;;4.07;3.10;;;;;;;22.97;58.14;100127.28;5074432;28;20309;-61
2022/05/16 01:13:26;;;;;;;4.60;2.10;;;;;;;22.97;58.08;100133.03;5091240;28;20452;-61
2022/05/16 01:15:51;;;;;;;6.27;2.80;;;;;;;22.98;58.05;100151.16;5091775;28;20409;-61
2022/05/16 01:18:19;;;;;;;3.47;2.43;;;;;;;22.97;58.41;100147.44;5127600;27;20429;-61
2022/05/16 01:20:44;;;;;;;5.03;3.13;;;;;;;22.97;58.31;100147.44;5122594;27;20259;-61
2022/05/16 01:23:12;;;;;;;4.47;2.60;;;;;;;22.96;58.19;100140.03;5091809;28;20432;-61
2022/05/16 01:25:37;;;;;;;6.13;2.73;;;;;;;22.96;57.98;100127.69;5091066;28;20554;-61
2022/05/16 01:28:04;;;;;;;4.47;2.80;;;;;;;22.96;58.54;100133.44;5092339;28;20420;-61
2022/05/16 01:30:35;;;;;;;4.60;3.03;;;;;;;22.95;58.30;100126.88;5092492;28;20182;-61
2022/05/16 01:33:01;;;;;;;5.77;3.00;;;;;;;22.96;58.53;100130.56;5105437;28;20536;-61
2022/05/16 01:35:29;;;;;;;4.50;2.80;;;;;;;22.94;58.12;100124.41;5090857;28;20424;-61
2022/05/16 01:40:38;;;;;;;5.03;2.73;;;;;;;22.94;58.32;100128.13;5091436;28;20399;-61
2022/05/16 01:43:04;;;;;;;6.17;3.00;;;;;;;22.93;58.11;100137.19;5091780;28;20855;-61
2022/05/16 01:45:30;;;;;;;4.70;2.70;;;;;;;22.93;58.66;100129.34;5091873;28;20703;-61
2022/05/16 01:47:55;;;;;;;4.43;2.73;;;;;;;22.92;58.21;100124.81;5094197;28;20423;-61
2022/05/16 01:50:21;;;;;;;4.17;2.90;;;;;;;22.92;58.20;100127.72;5091798;28;20257;-61
2022/05/16 01:52:46;;;;;;;2.93;2.37;;;;;;;22.92;58.08;100136.34;5091672;28;20219;-62
2022/05/16 01:55:12;;;;;;;4.77;2.67;;;;;;;22.92;58.28;100130.59;5090601;28;20221;-62
2022/05/16 01:57:38;;;;;;;4.30;2.83;;;;;;;22.90;58.35;100123.59;5091067;28;20178;-62
2022/05/16 02:00:05;;;;;;;3.53;2.60;;;;;;;22.91;58.16;100114.56;5100616;28;20178;-61
2022/05/16 02:02:30;;;;;;;7.10;2.80;;;;;;;22.92;58.14;100116.19;5109825;28;20509;-61
2022/05/16 02:04:56;;;;;;;4.50;3.00;;;;;;;22.92;58.47;100115.38;5110307;28;20416;-61
2022/05/16 02:07:21;;;;;;;4.07;2.77;;;;;;;22.90;58.51;100121.56;5108409;28;20173;-61
2022/05/16 02:09:47;;;;;;;6.80;2.97;;;;;;;22.90;58.45;100117.84;5110011;28;20237;-61
2022/05/16 02:12:12;;;;;;;6.10;3.40;;;;;;;22.90;58.45;100112.09;5109543;28;20177;-61
2022/05/16 02:14:38;;;;;;;3.87;2.77;;;;;;;22.90;58.43;100117.84;5111086;28;20302;-61
2022/05/16 02:17:03;;;;;;;4.10;2.90;;;;;;;22.89;58.65;100119.91;5119407;27;20267;-61
2022/05/16 02:19:29;;;;;;;6.17;2.83;;;;;;;22.88;58.28;100109.63;5131680;27;20644;-61
2022/05/16 02:24:38;;;;;;;4.80;2.80;;;;;;;22.88;58.26;100109.63;5110719;28;20647;-61
2022/05/16 02:27:04;;;;;;;4.13;3.00;;;;;;;22.87;58.53;100110.06;5111415;28;20419;-61
2022/05/16 02:29:30;;;;;;;6.57;2.97;;;;;;;22.87;58.10;100113.75;5111526;28;20178;-61
2022/05/16 02:31:55;;;;;;;3.93;3.00;;;;;;;22.86;58.42;100114.16;5108274;28;20967;-61
2022/05/16 02:34:21;;;;;;;7.37;2.90;;;;;;;22.86;58.54;100119.91;5111348;28;20714;-61
2022/05/16 02:36:46;;;;;;;4.00;2.80;;;;;;;22.86;58.36;100117.84;5110732;28;20166;-61
2022/05/16 02:39:12;;;;;;;4.57;2.83;;;;;;;22.85;58.02;100121.16;5109702;28;20177;-61
2022/05/16 02:41:38;;;;;;;4.50;2.83;;;;;;;22.84;57.96;100120.34;5110330;28;20186;-61
2022/05/16 02:44:03;;;;;;;4.60;2.50;;;;;;;22.84;58.27;100117.47;5109214;28;20414;-61
2022/05/16 02:46:29;;;;;;;4.10;2.70;;;;;;;22.84;57.86;100123.22;5108322;28;20191;-61
2022/05/16 02:48:54;;;;;;;4.80;3.10;;;;;;;22.84;57.96;100128.97;5107452;28;20583;-61
2022/05/16 02:51:20;;;;;;;6.10;3.00;;;;;;;22.83;58.35;100124.44;5098888;28;20386;-61
2022/05/16 02:53:45;;;;;;;7.00;3.20;;;;;;;22.82;58.12;100124.88;5093072;28;20645;-61
2022/05/16 02:56:11;;;;;;;6.87;2.87;;;;;;;22.82;58.19;100122.78;5089285;28;20170;-61
2022/05/16 02:58:36;;;;;;;7.60;3.40;;;;;;;22.81;58.03;100121.16;5089389;28;20174;-61
2022/05/16 03:01:01;;;;;;;4.50;2.70;;;;;;;22.82;57.94;100116.25;5090221;28;20185;-61
2022/05/16 03:03:27;;;;;;;5.10;3.33;;;;;;;22.81;58.13;100117.44;5089253;28;20169;-61
2022/05/16 03:05:52;;;;;;;6.10;2.90;;;;;;;22.81;58.10;100126.91;5088921;28;20205;-61
2022/05/16 03:08:18;;;;;;;4.50;3.33;;;;;;;22.80;57.90;100128.16;5088673;28;20170;-61
2022/05/16 03:10:43;;;;;;;3.70;2.53;;;;;;;22.80;57.94;100148.31;5088713;28;20229;-61
2022/05/16 03:13:09;;;;;;;5.60;2.73;;;;;;;22.81;58.07;100149.09;5088271;28;20198;-61
2022/05/16 03:15:34;;;;;;;4.00;3.07;;;;;;;22.80;57.92;100144.59;5087093;28;20603;-61
2022/05/16 03:18:00;;;;;;;5.77;3.23;;;;;;;22.79;58.18;100140.91;5119888;28;20255;-61
2022/05/16 03:20:26;;;;;;;4.80;3.10;;;;;;;22.79;58.00;100140.91;5124356;27;20188;-61
2022/05/16 03:22:51;;;;;;;3.93;2.87;;;;;;;22.78;57.67;100145.00;5089396;28;20409;-61
2022/05/16 03:25:17;;;;;;;6.07;3.40;;;;;;;22.79;58.02;100135.16;5091963;28;20185;-61
2022/05/16 03:27:42;;;;;;;6.23;3.27;;;;;;;22.78;58.20;100136.38;5110946;28;20169;-61
2022/05/16 03:30:08;;;;;;;6.90;3.17;;;;;;;22.79;58.21;100140.91;5110464;28;20230;-61
2022/05/16 03:32:34;;;;;;;5.70;3.10;;;;;;;22.79;58.25;100145.84;5109891;28;20266;-61
2022/05/16 03:34:59;;;;;;;7.23;3.30;;;;;;;22.79;57.98;100146.66;5109139;28;20423;-61
2022/05/16 03:37:25;;;;;;;5.80;3.23;;;;;;;22.79;58.25;100140.91;5109729;28;20185;-61
2022/05/16 03:42:34;;;;;;;6.90;3.57;;;;;;;22.78;58.00;100145.00;5111304;28;20191;-61
2022/05/16 03:45:00;;;;;;;4.10;2.80;;;;;;;22.79;58.37;100128.56;5113427;28;20471;-61
2022/05/16 03:47:25;;;;;;;5.83;2.97;;;;;;;22.78;58.07;100124.06;5114323;28;20181;-61
2022/05/16 03:49:51;;;;;;;6.63;3.07;;;;;;;22.78;58.34;100130.59;5113646;28;20189;-61
2022/05/16 03:52:16;;;;;;;4.90;3.00;;;;;;;22.78;58.37;100130.59;5096218;28;20182;-61
2022/05/16 03:54:42;;;;;;;6.10;3.10;;;;;;;22.78;58.18;100124.06;5098410;27;20652;-61
2022/05/16 03:57:07;;;;;;;7.10;3.70;;;;;;;22.78;58.14;100127.72;5102809;28;20192;-61
2022/05/16 03:59:33;;;;;;;5.93;3.60;;;;;;;22.77;58.31;100131.84;5110588;28;20178;-61
2022/05/16 04:01:58;;;;;;;5.50;2.73;;;;;;;22.78;58.39;100132.69;5114302;27;20262;-61
2022/05/16 04:04:25;;;;;;;4.73;3.23;;;;;;;22.78;58.80;100126.94;5113680;28;20257;-61
2022/05/16 04:06:50;;;;;;;6.37;3.20;;;;;;;22.78;58.35;100132.69;5113810;28;20181;-61
2022/05/16 04:09:15;;;;;;;4.43;2.77;;;;;;;22.76;58.79;100135.97;5113806;27;20478;-61
2022/05/16 04:11:41;;;;;;;5.90;3.03;;;;;;;22.76;58.87;100133.09;5114034;28;20162;-61
2022/05/16 04:14:07;;;;;;;3.87;3.07;;;;;;;22.76;58.66;100133.09;5113543;27;20213;-61
2022/05/16 04:16:32;;;;;;;4.10;3.00;;;;;;;22.76;58.42;100135.97;5117492;27;20214;-61
2022/05/16 04:18:58;;;;;;;5.30;3.47;;;;;;;22.75;58.51;100140.09;5133388;27;20260;-61
2022/05/16 04:21:23;;;;;;;4.77;3.50;;;;;;;22.75;58.86;100137.22;5112776;27;20193;-61
2022/05/16 04:23:49;;;;;;;4.53;3.10;;;;;;;22.76;58.65;100144.59;5093393;28;20544;-61
2022/05/16 04:26:14;;;;;;;5.83;3.30;;;;;;;22.75;58.46;100145.84;5092831;28;20666;-61
2022/05/16 04:28:40;;;;;;;4.27;3.17;;;;;;;22.75;58.49;100151.59;5093513;28;20178;-61
2022/05/16 04:31:05;;;;;;;4.87;2.77;;;;;;;22.74;58.95;100152.84;5092624;28;20171;-61
2022/05/16 04:33:33;;;;;;;4.40;3.43;;;;;;;22.74;58.41;100161.47;5105548;28;20190;-61
2022/05/16 04:35:59;;;;;;;5.60;3.33;;;;;;;22.73;58.52;100151.19;5113562;28;20185;-62
2022/05/16 04:38:25;;;;;;;5.80;3.53;;;;;;;22.72;58.96;100158.19;5112659;28;20418;-61
2022/05/16 04:43:35;;;;;;;4.47;3.40;;;;;;;22.72;58.91;100168.88;5112788;28;20483;-61
2022/05/16 04:46:04;;;;;;;6.33;3.37;;;;;;;22.71;58.99;100173.81;5112477;27;20822;-61
2022/05/16 04:48:29;;;;;;;4.73;3.30;;;;;;;22.72;58.87;100168.88;5112872;28;20257;-61
2022/05/16 04:50:55;;;;;;;5.00;3.23;;;;;;;22.72;58.58;100154.50;5105873;28;20459;-61
2022/05/16 04:53:20;;;;;;;5.33;3.57;;;;;;;22.72;58.70;100161.06;5093084;28;20585;-61
2022/05/16 04:55:46;;;;;;;5.33;3.07;;;;;;;22.74;58.89;100161.47;5110436;28;20174;-61
2022/05/16 04:58:11;;;;;;;5.20;3.23;;;;;;;22.74;58.81;100160.66;5113139;28;20513;-61
2022/05/16 05:00:37;;;;;;;4.87;3.40;;;;;;;22.73;58.83;100162.69;5111543;27;20177;-61
2022/05/16 05:03:02;;;;;;;4.63;3.27;;;;;;;22.75;58.54;100170.91;5113011;28;20193;-61
2022/05/16 05:05:28;;;;;;;6.50;3.43;;;;;;;22.76;59.05;100175.44;5112615;28;20209;-61
2022/05/16 05:07:53;;;;;;;3.90;3.27;;;;;;;22.75;58.97;100174.63;5111858;28;20169;-61
2022/05/16 05:15:52;;;;;;;5.30;3.27;;;;;;;22.70;59.27;100174.22;5091971;28;20949;-61
2022/05/16 05:18:18;;;;;;;8.13;3.50;;;;;;;22.85;59.06;100168.03;5128253;27;20418;-61
2022/05/16 05:20:45;;;;;;;5.80;4.10;;;;;;;23.06;60.86;100168.00;5097168;27;20876;-61
2022/05/16 05:23:10;;;;;;;8.97;6.60;;;;;;;23.39;62.02;100176.13;5105226;28;20261;-61
2022/05/16 05:25:36;;;;;;;21.67;8.80;;;;;;;23.58;62.68;100175.66;5110499;28;20418;-60
2022/05/16 05:28:02;;;;;;;14.80;8.30;;;;;;;23.44;62.98;100172.03;5104813;28;20173;-61
2022/05/16 05:30:27;;;;;;;14.87;7.93;;;;;;;23.33;62.02;100169.16;5110868;28;20281;-61
2022/05/16 05:32:53;;;;;;;15.23;6.47;;;;;;;23.26;62.96;100174.97;5112161;28;20443;-61
2022/05/16 05:35:18;;;;;;;13.57;5.70;;;;;;;23.24;62.42;100179.50;5111960;28;20583;-61
2022/05/16 05:37:44;;;;;;;10.67;5.80;;;;;;;23.22;62.67;100185.66;5094926;28;20178;-61
2022/05/16 05:40:09;;;;;;;9.10;5.70;;;;;;;23.19;62.91;100191.44;5091577;28;20162;-61
2022/05/16 05:42:35;;;;;;;10.43;5.07;;;;;;;23.19;62.75;100205.84;5089861;28;20220;-61
2022/05/16 05:45:01;;;;;;;13.20;5.10;;;;;;;23.17;62.77;100208.28;5091019;28;20197;-62
2022/05/16 05:47:26;;;;;;;11.97;4.80;;;;;;;23.17;62.69;100209.09;5093883;28;20596;-62
2022/05/16 05:49:52;;;;;;;16.20;6.80;;;;;;;23.22;63.55;100217.34;5091925;28;20701;-61
2022/05/16 05:52:17;;;;;;;8.77;5.33;;;;;;;23.28;63.23;100221.47;5102652;28;20194;-61
2022/05/16 05:54:43;;;;;;;10.60;5.30;;;;;;;23.26;62.83;100220.22;5105731;28;20201;-61
2022/05/16 05:57:09;;;;;;;13.53;5.13;;;;;;;23.26;62.89;100223.94;5107480;28;20734;-61
2022/05/16 05:59:34;;;;;;;8.03;4.70;;;;;;;23.29;62.92;100230.94;5098688;28;20416;-61
2022/05/16 06:02:00;;;;;;;9.90;4.93;;;;;;;23.29;63.71;100242.47;5101664;28;20642;-61
2022/05/16 06:04:25;;;;;;;10.70;4.80;;;;;;;23.28;63.31;100238.75;5089593;28;20171;-61
2022/05/16 06:06:51;;;;;;;7.00;4.30;;;;;;;23.22;62.60;100240.41;5088550;28;20700;-61
2022/05/16 06:09:16;;;;;;;7.50;4.30;;;;;;;23.21;62.74;100243.69;5100166;28;20232;-61
2022/05/16 06:11:42;;;;;;;8.30;4.30;;;;;;;23.20;62.66;100244.94;5102965;28;20170;-61
2022/05/16 06:14:07;;;;;;;7.80;4.17;;;;;;;23.15;62.52;100246.16;5109000;28;20672;-61
2022/05/16 06:16:32;;;;;;;5.93;3.70;;;;;;;23.11;61.92;100256.84;5097218;27;20160;-61
2022/05/16 06:18:58;;;;;;;10.20;4.50;;;;;;;23.03;60.17;100260.97;5111399;27;20183;-62
2022/05/16 06:21:23;;;;;;;7.20;3.57;;;;;;;22.99;60.96;100263.06;5091316;28;20606;-62
2022/05/16 06:23:49;;;;;;;5.43;3.97;;;;;;;22.97;60.87;100268.38;5091317;28;20620;-62
2022/05/16 06:26:15;;;;;;;8.17;4.50;;;;;;;22.99;61.29;100274.56;5091382;28;20565;-62
2022/05/16 06:28:40;;;;;;;10.33;4.50;;;;;;;23.00;61.03;100273.31;5109292;28;20208;-62
2022/05/16 06:31:06;;;;;;;7.10;4.20;;;;;;;23.00;61.02;100279.09;5110063;28;20541;-62
2022/05/16 06:33:31;;;;;;;7.00;3.63;;;;;;;23.02;61.09;100281.56;5109109;28;20193;-61
2022/05/16 06:35:57;;;;;;;9.03;4.07;;;;;;;23.04;60.93;100284.84;5110532;28;20214;-61
2022/05/16 06:38:28;;;;;;;10.13;4.27;;;;;;;23.05;60.81;100281.56;5110232;28;20174;-61
2022/05/16 06:40:55;;;;;;;10.13;4.33;;;;;;;23.08;61.37;100292.22;5111340;28;20475;-61
2022/05/16 06:43:21;;;;;;;16.30;4.93;;;;;;;23.07;61.21;100292.63;5111379;28;20430;-61
2022/05/16 06:45:47;;;;;;;8.53;4.03;;;;;;;23.06;60.95;100297.59;5109976;28;20533;-61
2022/05/16 06:48:13;;;;;;;9.50;4.00;;;;;;;23.05;61.06;100293.06;5109748;28;20407;-61
2022/05/16 06:50:39;;;;;;;20.00;5.50;;;;;;;23.05;61.21;100301.72;5107667;28;20427;-61
2022/05/16 06:53:04;;;;;;;9.17;3.97;;;;;;;23.04;61.32;100308.72;5110789;28;20189;-61
2022/05/16 06:55:30;;;;;;;12.00;4.47;;;;;;;23.03;61.35;100307.03;5111092;28;20246;-61
2022/05/16 06:57:55;;;;;;;7.17;3.87;;;;;;;23.04;61.21;100308.72;5111258;28;20169;-61
2022/05/16 07:00:21;;;;;;;11.53;3.93;;;;;;;23.03;61.42;100309.13;5111219;28;20587;-61
2022/05/16 07:02:47;;;;;;;12.97;4.03;;;;;;;23.03;60.99;100324.31;5110717;28;20696;-61
2022/05/16 07:05:12;;;;;;;7.60;4.23;;;;;;;23.02;61.02;100322.69;5109814;28;20154;-61
2022/05/16 07:07:38;;;;;;;10.30;4.03;;;;;;;23.01;61.21;100332.56;5109330;28;20689;-61
2022/05/16 07:10:04;;;;;;;8.27;4.10;;;;;;;23.01;61.04;100325.97;5109374;28;20209;-61
2022/05/16 07:12:30;;;;;;;8.90;4.00;;;;;;;23.01;61.30;100326.81;5111185;28;20169;-61
2022/05/16 07:14:55;;;;;;;5.80;3.60;;;;;;;23.00;61.28;100330.09;5109283;28;20846;-62
2022/05/16 07:17:20;;;;;;;6.53;4.10;;;;;;;22.99;60.82;100328.44;5121349;27;20178;-62
2022/05/16 07:19:49;;;;;;;10.03;3.70;;;;;;;23.00;61.22;100335.84;5135736;27;20173;-62
2022/05/16 07:22:17;;;;;;;5.50;3.63;;;;;;;23.01;60.87;100340.38;5099804;27;20182;-62
2022/05/16 07:24:43;;;;;;;11.47;3.77;;;;;;;23.00;61.21;100342.44;5094289;28;20420;-62
2022/05/16 07:29:52;;;;;;;6.20;4.10;;;;;;;23.01;60.90;100344.06;5094086;28;20407;-61
2022/05/16 07:32:18;;;;;;;5.47;3.83;;;;;;;23.02;60.91;100357.25;5105261;28;20850;-61
2022/05/16 07:34:43;;;;;;;9.77;3.90;;;;;;;23.03;60.82;100356.00;5113280;28;20699;-61
2022/05/16 07:37:09;;;;;;;6.07;3.60;;;;;;;23.03;60.87;100358.88;5114759;27;20174;-61
2022/05/16 07:39:35;;;;;;;7.37;4.80;;;;;;;23.04;61.15;100368.34;5115026;28;20173;-61
2022/05/16 07:42:01;;;;;;;6.30;3.53;;;;;;;23.03;60.62;100376.16;5113271;28;20186;-61
2022/05/16 07:44:27;;;;;;;9.20;4.27;;;;;;;23.02;61.56;100380.28;5111773;28;20617;-61
2022/05/16 07:46:52;;;;;;;5.70;4.17;;;;;;;23.01;60.76;100378.63;5113023;28;20427;-61
2022/05/16 07:49:19;;;;;;;6.53;3.83;;;;;;;23.01;61.13;100384.41;5113252;28;20279;-61
2022/05/16 07:51:45;;;;;;;7.50;4.40;;;;;;;23.03;61.35;100384.00;5099344;28;20263;-61
2022/05/16 07:54:10;;;;;;;6.27;3.80;;;;;;;23.02;60.81;100386.03;5095026;28;20826;-61
2022/05/16 07:56:36;;;;;;;9.67;4.70;;;;;;;23.04;60.98;100386.47;5093664;28;20182;-61
2022/05/16 07:59:02;;;;;;;6.30;4.10;;;;;;;23.02;60.83;100388.91;5096325;28;20182;-61
2022/05/16 08:01:28;;;;;;;9.60;4.10;;;;;;;23.03;60.88;100390.56;5093045;28;20182;-61
2022/05/16 08:03:53;;;;;;;7.77;5.00;;;;;;;23.04;60.88;100391.41;5092232;28;20427;-61
2022/05/16 08:06:19;;;;;;;9.27;4.80;;;;;;;23.03;60.94;100399.19;5092232;28;20178;-61
2022/05/16 08:11:28;;;;;;;7.40;4.33;;;;;;;23.05;60.76;100405.38;5092055;28;20193;-61
2022/05/16 08:13:54;;;;;;;8.10;4.40;;;;;;;23.05;60.67;100411.16;5092313;28;20463;-61
2022/05/16 08:16:19;;;;;;;12.53;4.67;;;;;;;23.05;60.81;100405.38;5095387;27;20173;-61
2022/05/16 08:18:45;;;;;;;5.90;3.63;;;;;;;23.07;60.77;100404.97;5133230;27;20169;-61
2022/05/16 08:21:10;;;;;;;8.63;3.73;;;;;;;23.07;60.57;100400.03;5114383;27;20520;-61
2022/05/16 08:23:36;;;;;;;8.67;4.57;;;;;;;23.07;60.27;100400.03;5096215;28;20178;-61
2022/05/16 08:26:04;;;;;;;5.37;3.17;;;;;;;23.06;60.21;100404.16;5113409;28;20227;-61
2022/05/16 08:28:30;;;;;;;10.80;4.50;;;;;;;23.07;60.51;100396.31;5112670;28;20261;-61
2022/05/16 08:30:56;;;;;;;6.53;3.60;;;;;;;23.06;60.57;100404.16;5113568;28;20516;-61
2022/05/16 08:33:21;;;;;;;9.57;4.00;;;;;;;23.08;60.35;100403.75;5113969;28;20893;-61
2022/05/16 08:39:52;;;;;;;6.20;3.70;;;;;;;23.09;60.08;100420.59;5113618;28;20174;-61
2022/05/16 08:41:16;;;;;;;6.33;3.87;;;;;;;23.10;60.31;100428.03;5111440;28;20765;-62
2022/05/16 08:43:44;;;;;;;11.63;4.33;;;;;;;23.12;60.20;100431.31;5111529;28;21072;-62
2022/05/16 08:46:35;;;;;;;7.03;3.93;;;;;;;23.11;59.99;100432.53;5111177;28;20453;-61
2022/05/16 08:49:17;;;;;;;7.60;3.93;;;;;;;23.14;59.93;100449.00;5094802;28;20516;-61
2022/05/16 08:51:43;;;;;;;7.57;4.97;;;;;;;23.11;59.92;100454.75;5101804;28;20427;-61
2022/05/16 08:54:29;;;;;;;9.90;4.60;;;;;;;23.12;59.89;100460.13;5109762;28;20972;-61
2022/05/16 08:56:54;;;;;;;7.60;3.93;;;;;;;23.13;59.26;100461.75;5111909;28;20425;-61
2022/05/16 08:59:22;;;;;;;11.07;4.27;;;;;;;23.11;59.53;100457.63;5113215;28;20415;-61
2022/05/16 09:01:50;;;;;;;11.40;4.17;;;;;;;23.11;59.47;100457.63;5094878;28;20202;-61
2022/05/16 09:04:20;;;;;;;7.13;4.00;;;;;;;23.09;59.50;100465.88;5113367;28;20407;-61
2022/05/16 09:06:57;;;;;;;6.50;4.20;;;;;;;23.11;60.05;100463.41;5113066;28;20885;-61
2022/05/16 09:09:26;;;;;;;9.53;4.30;;;;;;;23.11;59.61;100470.00;5111400;28;20455;-61
2022/05/16 09:12:13;;;;;;;7.53;4.50;;;;;;;23.13;59.25;100484.78;5111721;28;20934;-61
2022/05/16 09:14:52;;;;;;;7.57;4.07;;;;;;;23.11;59.11;100493.03;5112309;28;21047;-61
2022/05/16 09:17:56;;;;;;;9.53;4.50;;;;;;;23.11;58.68;100503.72;5122347;27;20407;-61
2022/05/16 09:20:44;;;;;;;9.50;4.00;;;;;;;23.09;58.33;100507.00;5112967;27;20434;-61
2022/05/16 09:23:16;;;;;;;8.20;3.50;;;;;;;23.08;58.34;100516.06;5091487;28;20412;-61
2022/05/16 09:25:47;;;;;;;8.27;2.80;;;;;;;23.08;58.36;100530.47;5092135;28;20461;-61
2022/05/16 09:30:59;;;;;;;6.73;3.50;;;;;;;23.03;57.47;100533.75;5100812;28;20479;-61
2022/05/16 09:33:26;;;;;;;6.37;3.20;;;;;;;23.01;57.13;100550.59;5109839;28;20455;-61
2022/05/16 09:36:01;;;;;;;6.67;3.13;;;;;;;22.98;57.03;100557.19;5111217;28;21021;-62
2022/05/16 09:38:27;;;;;;;12.23;3.07;;;;;;;22.97;57.20;100573.63;5112468;28;20415;-62
2022/05/16 09:40:58;;;;;;;7.73;3.70;;;;;;;22.95;57.14;100570.31;5112284;28;20890;-62
2022/05/16 09:43:24;;;;;;;4.80;2.90;;;;;;;22.94;57.02;100583.09;5112046;28;20180;-62
2022/05/16 09:45:53;;;;;;;6.17;2.77;;;;;;;22.91;57.27;100591.69;5111783;28;20439;-62
2022/05/16 09:48:21;;;;;;;8.73;3.20;;;;;;;22.89;56.74;100603.63;5109994;28;20411;-62
2022/05/16 09:51:00;;;;;;;6.47;2.73;;;;;;;22.87;56.98;100617.59;5103381;28;20493;-62
2022/05/16 09:53:36;;;;;;;6.00;2.60;;;;;;;22.84;57.51;100618.41;5089047;28;20467;-62
2022/05/16 09:56:26;;;;;;;9.77;2.70;;;;;;;22.81;57.87;100627.84;5089860;28;20633;-62
2022/05/16 09:59:00;;;;;;;5.83;3.17;;;;;;;22.79;57.92;100630.31;5089707;28;20453;-62
2022/05/16 10:01:39;;;;;;;5.70;2.90;;;;;;;22.79;58.38;100633.19;5089555;28;20446;-62
2022/05/16 10:04:20;;;;;;;8.27;3.20;;;;;;;22.79;58.48;100644.69;5089427;28;20771;-62
2022/05/16 10:07:02;;;;;;;9.37;2.80;;;;;;;22.78;58.27;100657.41;5089604;28;20459;-62
2022/05/16 10:09:37;;;;;;;10.93;2.80;;;;;;;22.78;58.77;100639.34;5093421;28;20892;-62
2022/05/16 10:12:03;;;;;;;7.77;2.70;;;;;;;22.78;58.70;100640.16;5090148;28;20403;-62
2022/05/16 10:14:29;;;;;;;6.90;2.80;;;;;;;22.78;59.45;100645.91;5091002;28;20459;-62
2022/05/16 10:16:55;;;;;;;4.80;2.07;;;;;;;22.79;59.23;100647.56;5103161;27;20913;-62
2022/05/16 10:19:26;;;;;;;5.20;2.80;;;;;;;22.80;59.68;100660.75;5124355;27;20419;-62
2022/05/16 10:22:01;;;;;;;7.70;2.40;;;;;;;22.81;59.34;100667.31;5078984;28;20332;-62
2022/05/16 10:24:29;;;;;;;9.63;2.73;;;;;;;22.80;59.76;100672.25;5089679;28;20408;-62
2022/05/16 10:26:56;;;;;;;7.57;2.60;;;;;;;22.81;59.88;100673.06;5090306;28;20468;-62
2022/05/16 10:29:32;;;;;;;6.87;2.90;;;;;;;22.80;60.03;100668.53;5070684;28;20405;-62
2022/05/16 10:34:49;;;;;;;5.40;2.83;;;;;;;22.81;60.16;100650.03;5088054;28;20487;-62
2022/05/16 10:37:14;;;;;;;8.03;2.40;;;;;;;22.82;60.07;100668.97;5087607;28;20795;-62
2022/05/16 10:39:42;;;;;;;7.50;2.97;;;;;;;22.82;60.01;100661.16;5070731;28;20416;-62
2022/05/16 10:42:21;;;;;;;7.27;2.83;;;;;;;22.83;60.32;100662.78;5087884;28;20663;-62
2022/05/16 10:44:56;;;;;;;7.20;3.57;;;;;;;22.83;60.32;100650.47;5104042;28;20948;-62
2022/05/16 10:47:22;;;;;;;6.17;2.53;;;;;;;22.83;60.21;100665.69;5109802;28;20522;-62
2022/05/16 10:50:06;;;;;;;5.73;2.37;;;;;;;22.84;60.27;100660.75;5092685;28;20814;-62
2022/05/16 10:52:52;;;;;;;7.37;2.80;;;;;;;22.83;60.45;100665.69;5097986;28;20498;-62
2022/05/16 10:55:18;;;;;;;7.80;2.50;;;;;;;22.83;60.32;100659.91;5093940;28;20427;-62
2022/05/16 10:58:11;;;;;;;5.30;2.27;;;;;;;22.84;60.50;100652.13;5095061;28;20417;-62
2022/05/16 11:00:50;;;;;;;4.17;1.87;;;;;;;22.84;60.44;100661.59;5094409;28;20303;-62
2022/05/16 11:03:18;;;;;;;4.97;2.60;;;;;;;22.85;60.87;100656.66;5076617;28;20412;-62
2022/05/16 11:06:11;;;;;;;6.17;2.73;;;;;;;22.84;60.32;100661.59;5093575;28;20505;-62
2022/05/16 11:08:58;;;;;;;6.97;2.80;;;;;;;22.83;60.50;100654.16;5091813;28;20436;-62
2022/05/16 11:12:04;;;;;;;5.93;2.90;;;;;;;22.82;60.55;100666.91;5093295;28;20412;-62
2022/05/16 11:14:36;;;;;;;6.20;2.53;;;;;;;22.82;60.74;100666.91;5090402;28;20460;-62
2022/05/16 11:17:11;;;;;;;5.33;2.60;;;;;;;22.81;61.36;100655.78;5088621;27;20799;-62
2022/05/16 11:19:56;;;;;;;5.60;2.70;;;;;;;22.81;61.34;100648.00;5132297;27;20422;-62
2022/05/16 11:22:24;;;;;;;6.90;2.73;;;;;;;22.81;61.72;100659.50;5095705;27;20877;-62
2022/05/16 11:25:13;;;;;;;4.50;2.23;;;;;;;22.81;62.19;100639.34;5092624;28;20428;-62
2022/05/16 11:28:11;;;;;;;6.20;3.03;;;;;;;22.81;62.17;100629.88;5085513;28;20435;-62
2022/05/16 11:31:00;;;;;;;6.30;2.43;;;;;;;22.82;62.48;100638.13;5091879;28;20425;-62
2022/05/16 11:33:53;;;;;;;6.80;3.47;;;;;;;22.84;62.42;100629.09;5077157;28;20448;-62
2022/05/16 11:36:45;;;;;;;5.50;2.93;;;;;;;22.84;62.52;100615.53;5099079;28;20441;-62
2022/05/16 11:39:13;;;;;;;7.60;3.10;;;;;;;22.86;62.41;100612.22;5114031;28;20906;-62
2022/05/16 11:41:57;;;;;;;5.50;2.63;;;;;;;22.87;62.56;100613.91;5096373;28;20415;-62
2022/05/16 11:44:41;;;;;;;5.60;2.60;;;;;;;22.88;63.12;100616.34;5114486;28;20438;-62
2022/05/16 11:47:17;;;;;;;5.97;3.00;;;;;;;22.90;63.05;100615.94;5115164;28;20422;-62
2022/05/16 11:49:57;;;;;;;4.27;2.67;;;;;;;22.89;62.70;100605.66;5113110;28;20411;-62
2022/05/16 11:52:31;;;;;;;5.10;2.67;;;;;;;22.87;63.11;100608.94;5097459;28;20421;-62
2022/05/16 11:54:58;;;;;;;5.43;2.60;;;;;;;22.88;63.14;100607.72;5076123;28;20966;-62
2022/05/16 12:02:47;;;;;;;5.87;2.53;;;;;;;22.90;63.02;100585.13;5091384;28;20424;-62
2022/05/16 12:05:19;;;;;;;7.53;3.10;;;;;;;22.88;63.43;100590.44;5091453;28;20927;-62
2022/05/16 12:07:52;;;;;;;7.17;3.33;;;;;;;22.90;63.03;100593.75;5092608;28;20755;-62